createdAt,value
2022-09-04T00:01:10.429Z,19.00
2022-09-04T00:06:18.417Z,19.00
2022-09-04T00:11:36.024Z,19.00
2022-09-04T00:16:45.359Z,18.90
2022-09-04T00:21:53.857Z,18.90
2022-09-04T00:27:06.558Z,18.80
2022-09-04T00:32:21.490Z,18.80
2022-09-04T00:37:29.233Z,18.70
2022-09-04T00:43:06.638Z,18.70
2022-09-04T00:48:35.618Z,18.70
2022-09-04T00:53:59.616Z,18.60
2022-09-04T00:59:16.049Z,18.60
2022-09-04T01:04:40.362Z,18.60
2022-09-04T01:09:54.993Z,18.50
2022-09-04T01:15:14.635Z,18.50
2022-09-04T01:20:27.949Z,18.50
2022-09-04T01:26:01.694Z,18.50
2022-09-04T01:31:13.635Z,18.50
2022-09-04T01:36:26.405Z,18.40
2022-09-04T01:41:38.190Z,18.40
2022-09-04T01:46:59.294Z,18.30
2022-09-04T01:52:12.283Z,18.30
2022-09-04T01:57:30.714Z,18.20
2022-09-04T02:02:52.056Z,18.20
2022-09-04T02:08:06.918Z,18.10
2022-09-04T02:13:20.266Z,18.10
2022-09-04T02:18:36.120Z,17.90
2022-09-04T02:23:45.476Z,17.80
2022-09-04T02:28:58.062Z,17.80
2022-09-04T02:34:08.992Z,17.80
2022-09-04T02:39:25.075Z,17.80
2022-09-04T02:44:45.094Z,17.80
2022-09-04T02:49:57.091Z,17.70
2022-09-04T02:55:12.715Z,17.80
2022-09-04T03:00:21.374Z,17.80
2022-09-04T03:05:27.321Z,17.70
2022-09-04T03:10:34.280Z,17.70
2022-09-04T03:15:44.513Z,17.70
2022-09-04T03:20:54.064Z,17.60
2022-09-04T03:26:23.200Z,17.60
2022-09-04T03:31:34.238Z,17.60
2022-09-04T03:36:49.754Z,17.50
2022-09-04T03:42:05.882Z,17.50
2022-09-04T03:47:16.515Z,17.50
2022-09-04T03:52:26.537Z,17.50
2022-09-04T03:57:54.680Z,17.50
2022-09-04T04:03:12.531Z,17.50
2022-09-04T04:08:36.257Z,17.50
2022-09-04T04:14:01.757Z,17.50
2022-09-04T04:19:27.641Z,17.50
2022-09-04T04:24:48.176Z,17.60
2022-09-04T04:30:04.712Z,17.60
2022-09-04T04:35:19.753Z,17.60
2022-09-04T04:40:36.021Z,17.60
2022-09-04T04:45:54.889Z,17.60
2022-09-04T04:51:12.512Z,17.60
2022-09-04T04:56:20.125Z,17.50
2022-09-04T05:01:42.460Z,17.50
2022-09-04T05:06:54.148Z,17.50
2022-09-04T05:12:04.599Z,17.50
2022-09-04T05:17:15.957Z,17.50
2022-09-04T05:22:33.658Z,17.50
2022-09-04T05:27:48.260Z,17.50
2022-09-04T05:32:59.733Z,17.50
2022-09-04T05:38:10.072Z,17.60
2022-09-04T05:43:25.388Z,17.60
2022-09-04T05:48:35.801Z,17.70
2022-09-04T05:54:02.618Z,17.70
2022-09-04T05:59:39.043Z,17.80
2022-09-04T06:05:06.393Z,17.90
2022-09-04T06:10:18.876Z,18.00
2022-09-04T06:15:34.263Z,18.00
2022-09-04T06:20:57.248Z,18.10
2022-09-04T06:26:24.408Z,18.20
2022-09-04T06:31:53.925Z,18.20
2022-09-04T06:37:08.206Z,18.30
2022-09-04T06:42:24.358Z,18.40
2022-09-04T06:47:47.326Z,18.50
2022-09-04T06:53:08.809Z,18.60
2022-09-04T06:58:30.005Z,18.70
2022-09-04T07:03:45.144Z,18.80
2022-09-04T07:08:59.099Z,18.90
2022-09-04T07:14:21.837Z,19.00
2022-09-04T07:20:09.526Z,19.10
2022-09-04T07:25:18.451Z,19.20
2022-09-04T07:30:26.121Z,19.30
2022-09-04T07:35:36.342Z,19.40
2022-09-04T07:40:44.324Z,19.60
2022-09-04T07:45:58.539Z,19.70
2022-09-04T07:51:11.412Z,19.80
2022-09-04T07:56:26.185Z,19.90
2022-09-04T08:01:53.910Z,20.10
2022-09-04T08:07:00.283Z,20.20
2022-09-04T08:12:35.945Z,20.40
2022-09-04T08:18:00.560Z,20.50
2022-09-04T08:23:17.914Z,20.60
2022-09-04T08:28:36.454Z,20.80
2022-09-04T08:34:01.613Z,21.00
2022-09-04T08:39:09.858Z,21.10
2022-09-04T08:45:07.959Z,21.30
2022-09-04T08:50:45.336Z,21.40
2022-09-04T08:56:10.140Z,21.60
2022-09-04T09:01:42.015Z,21.80
2022-09-04T09:07:27.311Z,21.90
2022-09-04T09:13:11.170Z,22.20
2022-09-04T09:18:35.920Z,22.40
2022-09-04T09:23:55.037Z,22.70
2022-09-04T09:29:35.799Z,23.00
2022-09-04T09:35:29.289Z,23.20
2022-09-04T09:41:07.982Z,23.50
2022-09-04T09:46:32.644Z,23.80
2022-09-04T09:52:09.004Z,24.00
2022-09-04T09:57:43.624Z,24.30
2022-09-04T10:03:34.783Z,24.60
2022-09-04T10:09:12.220Z,24.90
2022-09-04T10:14:59.565Z,25.10
2022-09-04T10:20:32.451Z,25.30
2022-09-04T10:26:03.385Z,25.60
2022-09-04T10:31:44.816Z,25.70
2022-09-04T10:36:59.524Z,25.90
2022-09-04T10:42:11.988Z,26.00
2022-09-04T10:47:30.877Z,26.10
2022-09-04T10:53:01.265Z,26.20
2022-09-04T10:58:28.925Z,26.30
2022-09-04T11:03:44.936Z,26.40
2022-09-04T11:09:11.033Z,26.40
2022-09-04T11:14:44.349Z,26.50
2022-09-04T11:20:26.332Z,26.60
2022-09-04T11:26:06.229Z,26.60
2022-09-04T11:31:31.122Z,26.70
2022-09-04T11:37:10.938Z,26.90
2022-09-04T11:42:31.112Z,27.00
2022-09-04T11:48:11.913Z,27.10
2022-09-04T11:53:34.420Z,27.20
2022-09-04T11:59:01.849Z,27.30
2022-09-04T12:04:35.113Z,27.30
2022-09-04T12:10:06.499Z,27.20
2022-09-04T12:15:44.466Z,27.10
2022-09-04T12:21:12.330Z,27.00
2022-09-04T12:26:33.608Z,27.10
2022-09-04T12:31:59.428Z,27.10
2022-09-04T12:37:19.911Z,27.20
2022-09-04T12:42:29.872Z,27.40
2022-09-04T12:47:45.934Z,27.40
2022-09-04T12:53:26.421Z,27.50
2022-09-04T12:58:45.019Z,27.50
2022-09-04T13:03:58.972Z,27.60
2022-09-04T13:09:16.108Z,27.60
2022-09-04T13:14:45.922Z,27.60
2022-09-04T13:19:59.898Z,27.60
2022-09-04T13:25:16.145Z,27.70
2022-09-04T13:30:24.477Z,27.60
2022-09-04T13:35:41.268Z,27.60
2022-09-04T13:41:23.784Z,27.60
2022-09-04T13:46:38.891Z,27.60
2022-09-04T13:51:46.335Z,27.70
2022-09-04T13:56:56.403Z,27.70
2022-09-04T14:02:05.837Z,27.80
2022-09-04T14:07:14.713Z,27.90
2022-09-04T14:12:37.581Z,28.00
2022-09-04T14:17:50.873Z,28.00
2022-09-04T14:23:03.105Z,28.10
2022-09-04T14:28:16.925Z,28.20
2022-09-04T14:33:35.543Z,28.20
2022-09-04T14:38:56.621Z,28.20
2022-09-04T14:44:13.159Z,28.20
2022-09-04T14:49:21.399Z,28.30
2022-09-04T14:54:29.060Z,28.30
2022-09-04T14:59:37.997Z,28.40
2022-09-04T15:04:47.087Z,28.40
2022-09-04T15:09:51.954Z,28.40
2022-09-04T15:15:08.115Z,28.40
2022-09-04T15:20:20.357Z,28.40
2022-09-04T15:25:58.140Z,28.30
2022-09-04T15:31:15.955Z,28.40
2022-09-04T15:36:24.620Z,28.40
2022-09-04T15:41:39.076Z,28.40
2022-09-04T15:46:52.096Z,28.40
2022-09-04T15:52:07.312Z,28.40
2022-09-04T15:57:17.415Z,28.40
2022-09-04T16:02:36.517Z,28.40
2022-09-04T16:07:47.673Z,28.50
2022-09-04T16:12:58.170Z,28.50
2022-09-04T16:18:11.463Z,28.50
2022-09-04T16:23:18.679Z,28.50
2022-09-04T16:28:31.357Z,28.50
2022-09-04T16:33:38.539Z,28.50
2022-09-04T16:38:48.420Z,28.50
2022-09-04T16:44:11.884Z,28.50
2022-09-04T16:49:24.101Z,28.50
2022-09-04T16:54:33.272Z,28.60
2022-09-04T16:59:42.992Z,28.60
2022-09-04T17:04:55.812Z,28.50
2022-09-04T17:10:06.044Z,28.50
2022-09-04T17:15:22.276Z,28.40
2022-09-04T17:21:55.210Z,28.30
2022-09-04T17:29:08.416Z,28.20
2022-09-04T17:31:28.791Z,28.10
2022-09-04T17:40:40.821Z,28.00
2022-09-04T17:42:10.726Z,27.90
2022-09-04T17:47:32.733Z,27.80
2022-09-04T17:52:54.380Z,27.70
2022-09-04T17:58:04.433Z,27.50
2022-09-04T18:03:22.110Z,27.30
2022-09-04T18:08:33.631Z,27.10
2022-09-04T18:13:43.476Z,27.00
2022-09-04T18:18:50.277Z,26.90
2022-09-04T18:24:05.031Z,26.70
2022-09-04T18:33:07.267Z,26.60
2022-09-04T18:37:16.431Z,26.40
2022-09-04T18:41:28.662Z,26.30
2022-09-04T18:50:46.229Z,26.20
2022-09-04T18:51:40.851Z,26.10
2022-09-04T18:56:50.136Z,26.00
2022-09-04T19:02:01.621Z,25.80
2022-09-04T19:07:09.200Z,25.70
2022-09-04T19:12:19.078Z,25.70
2022-09-04T19:17:25.616Z,25.60
2022-09-04T19:22:35.633Z,25.40
2022-09-04T19:27:44.198Z,25.30
2022-09-04T19:33:04.337Z,25.20
2022-09-04T19:43:30.450Z,25.20
2022-09-04T19:46:17.787Z,25.00
2022-09-04T19:51:30.853Z,24.90
2022-09-04T19:55:23.895Z,24.70
2022-09-04T20:00:42.537Z,24.50
2022-09-04T20:05:54.810Z,24.10
2022-09-04T20:11:05.107Z,23.80
2022-09-04T20:16:21.659Z,23.50
2022-09-04T20:21:27.374Z,23.40
2022-09-04T20:26:33.286Z,23.30
2022-09-04T20:31:49.946Z,23.20
2022-09-04T20:36:59.334Z,23.20
2022-09-04T20:42:07.601Z,23.20
2022-09-04T20:52:44.381Z,23.10
2022-09-04T20:53:11.995Z,23.10
2022-09-04T21:03:10.162Z,23.00
2022-09-04T21:04:17.695Z,22.90
2022-09-04T21:09:55.164Z,22.80
2022-09-04T21:15:08.098Z,22.70
2022-09-04T21:20:59.595Z,22.60
2022-09-04T21:26:17.831Z,22.50
2022-09-04T21:31:36.487Z,22.30
2022-09-04T21:36:54.573Z,22.20
2022-09-04T21:42:17.075Z,22.10
2022-09-04T21:47:59.135Z,21.90
2022-09-04T21:53:24.062Z,21.80
2022-09-04T22:02:35.611Z,21.70
2022-09-04T22:04:34.093Z,21.50
2022-09-04T22:13:34.832Z,21.40
2022-09-04T22:15:32.783Z,21.20
2022-09-04T22:20:53.679Z,21.10
2022-09-04T22:26:24.080Z,21.00
2022-09-04T22:32:20.123Z,21.00
2022-09-04T22:38:01.210Z,21.00
2022-09-04T22:43:14.541Z,20.90
2022-09-04T22:49:12.548Z,20.90
2022-09-04T22:54:33.525Z,20.90
2022-09-04T23:00:01.617Z,20.80
2022-09-04T23:05:26.725Z,20.70
2022-09-04T23:13:48.668Z,20.70
2022-09-04T23:16:33.145Z,20.70
2022-09-04T23:26:44.827Z,20.70
2022-09-04T23:27:31.460Z,20.70
2022-09-04T23:33:27.104Z,20.70
2022-09-04T23:38:57.594Z,20.60
2022-09-04T23:44:39.742Z,20.50
2022-09-04T23:49:58.436Z,20.50
2022-09-04T23:55:19.564Z,20.40
